Time;durP1;ratioP1;P1;durP2;ratioP2;P2;SDS_P1;SDS_P2;PMS_P1;PMS_P2;Temp;Humidity;BMP_temperature;BMP_pressure;BME280_temperature;BME280_humidity;BME280_pressure;Samples;Min_cycle;Max_cycle;Signal;HPM_P1;HPM_P2
2022/07/11 00:02:14;;;;;;;6.53;2.53;;;;;;;;;;5041660;27;98555;-74
2022/07/11 00:04:42;;;;;;;10.68;2.95;;;;;;;;;;5041548;27;100059;-74
2022/07/11 00:07:09;;;;;;;12.60;3.45;;;;;;;;;;5042743;27;100576;-74
2022/07/11 00:09:35;;;;;;;8.45;2.70;;;;;;;;;;5034963;27;100028;-74
2022/07/11 00:12:02;;;;;;;10.27;2.88;;;;;;;;;;5047178;27;98864;-74
2022/07/11 00:14:28;;;;;;;12.93;2.83;;;;;;;;;;5034540;27;98591;-73
2022/07/11 00:16:54;;;;;;;9.52;3.15;;;;;;;;;;5041574;27;100139;-74
2022/07/11 00:19:21;;;;;;;8.35;2.65;;;;;;;;;;5028117;27;100093;-73
2022/07/11 00:21:48;;;;;;;12.38;2.70;;;;;;;;;;5036952;27;98700;-72
2022/07/11 00:24:17;;;;;;;8.82;3.22;;;;;;;;;;5045773;27;99872;-73
2022/07/11 00:26:43;;;;;;;9.68;2.47;;;;;;;;;;5043987;27;100426;-74
2022/07/11 00:29:10;;;;;;;7.72;2.55;;;;;;;;;;5038122;27;99713;-73
2022/07/11 00:31:36;;;;;;;7.82;2.35;;;;;;;;;;5028907;27;100761;-74
2022/07/11 00:34:03;;;;;;;11.40;2.60;;;;;;;;;;5029941;27;98617;-73
2022/07/11 00:36:31;;;;;;;8.73;2.38;;;;;;;;;;5030589;27;99079;-73
2022/07/11 00:38:58;;;;;;;7.75;2.00;;;;;;;;;;5028496;27;99516;-75
2022/07/11 00:41:24;;;;;;;5.90;2.33;;;;;;;;;;5029875;27;99169;-74
2022/07/11 00:43:53;;;;;;;4.43;2.15;;;;;;;;;;5043445;27;99861;-73
2022/07/11 00:46:20;;;;;;;4.65;2.13;;;;;;;;;;5030365;27;100489;-73
2022/07/11 00:48:46;;;;;;;7.95;2.20;;;;;;;;;;5041782;27;98508;-74
2022/07/11 00:51:12;;;;;;;6.55;1.98;;;;;;;;;;5040494;27;99795;-74
2022/07/11 00:53:40;;;;;;;5.03;1.80;;;;;;;;;;5047089;27;98575;-74
2022/07/11 00:56:08;;;;;;;3.92;1.48;;;;;;;;;;5033017;27;98967;-74
2022/07/11 00:58:35;;;;;;;5.18;1.35;;;;;;;;;;5046378;27;100312;-73
2022/07/11 01:01:02;;;;;;;5.03;2.05;;;;;;;;;;5030219;27;98151;-74
2022/07/11 01:03:28;;;;;;;1.85;1.08;;;;;;;;;;5030140;27;98602;-74
2022/07/11 01:05:54;;;;;;;1.42;0.93;;;;;;;;;;5039853;27;99384;-74
2022/07/11 01:08:21;;;;;;;1.80;1.00;;;;;;;;;;5047280;27;99530;-74
2022/07/11 01:10:47;;;;;;;2.95;1.48;;;;;;;;;;5034745;27;99906;-74
2022/07/11 01:13:13;;;;;;;2.35;0.95;;;;;;;;;;5034563;27;98711;-74
2022/07/11 01:15:40;;;;;;;4.38;1.10;;;;;;;;;;5027797;27;100216;-74
2022/07/11 01:18:06;;;;;;;2.42;1.08;;;;;;;;;;5029727;27;100323;-73
2022/07/11 01:20:33;;;;;;;3.45;1.63;;;;;;;;;;5028111;27;100080;-74
2022/07/11 01:23:03;;;;;;;2.53;1.40;;;;;;;;;;5028171;27;99007;-74
2022/07/11 01:25:32;;;;;;;4.03;1.10;;;;;;;;;;5030160;27;98906;-74
2022/07/11 01:27:59;;;;;;;3.55;1.15;;;;;;;;;;5027392;27;98657;-74
2022/07/11 01:30:29;;;;;;;5.57;1.33;;;;;;;;;;5036063;27;98883;-74
2022/07/11 01:32:55;;;;;;;2.97;1.17;;;;;;;;;;5031692;27;100054;-74
2022/07/11 01:35:22;;;;;;;1.42;1.00;;;;;;;;;;5027034;27;100353;-74
2022/07/11 01:37:49;;;;;;;2.40;1.02;;;;;;;;;;5027527;27;100148;-74
2022/07/11 01:40:16;;;;;;;3.42;1.15;;;;;;;;;;5044032;27;98606;-74
2022/07/11 01:42:43;;;;;;;3.17;1.63;;;;;;;;;;5028071;27;99953;-74
2022/07/11 01:45:10;;;;;;;3.78;1.30;;;;;;;;;;5032526;27;100337;-74
2022/07/11 01:47:36;;;;;;;3.35;1.15;;;;;;;;;;5037174;27;99366;-74
2022/07/11 01:50:04;;;;;;;3.70;1.35;;;;;;;;;;5029277;27;98221;-74
2022/07/11 01:52:30;;;;;;;2.05;1.20;;;;;;;;;;5034320;27;99332;-74
2022/07/11 01:54:57;;;;;;;3.70;1.55;;;;;;;;;;5032780;27;98520;-74
2022/07/11 01:57:23;;;;;;;2.75;1.10;;;;;;;;;;5039110;27;101748;-74
2022/07/11 01:59:49;;;;;;;4.43;1.50;;;;;;;;;;5036435;27;98617;-74
2022/07/11 02:02:16;;;;;;;2.20;1.20;;;;;;;;;;5029152;27;100246;-74
2022/07/11 02:04:42;;;;;;;4.28;1.25;;;;;;;;;;5027494;27;100136;-74
2022/07/11 02:07:11;;;;;;;4.75;1.50;;;;;;;;;;5036717;27;98611;-75
2022/07/11 02:09:38;;;;;;;2.65;1.13;;;;;;;;;;5040852;27;98913;-74
2022/07/11 02:12:05;;;;;;;3.28;1.35;;;;;;;;;;5045203;27;99437;-74
2022/07/11 02:14:31;;;;;;;2.38;1.15;;;;;;;;;;5029609;27;97822;-74
2022/07/11 02:16:58;;;;;;;2.72;1.20;;;;;;;;;;5030199;27;98971;-74
2022/07/11 02:19:25;;;;;;;3.97;1.30;;;;;;;;;;5027393;27;99389;-74
2022/07/11 02:21:51;;;;;;;4.20;1.38;;;;;;;;;;5043223;27;99927;-74
2022/07/11 02:24:18;;;;;;;7.45;1.63;;;;;;;;;;5039127;27;100707;-74
2022/07/11 02:26:44;;;;;;;5.53;1.50;;;;;;;;;;5034195;27;98566;-74
2022/07/11 02:29:11;;;;;;;7.57;1.40;;;;;;;;;;5030483;27;99810;-74
2022/07/11 02:31:37;;;;;;;9.75;1.60;;;;;;;;;;5027259;27;100405;-74
2022/07/11 02:34:04;;;;;;;2.80;1.50;;;;;;;;;;5028940;27;100283;-72
2022/07/11 02:36:31;;;;;;;4.55;1.60;;;;;;;;;;5048195;27;99558;-72
2022/07/11 02:38:57;;;;;;;1.83;1.40;;;;;;;;;;5036033;27;98929;-73
2022/07/11 02:41:25;;;;;;;5.40;1.80;;;;;;;;;;5033984;27;99287;-74
2022/07/11 02:43:51;;;;;;;6.90;1.70;;;;;;;;;;5051229;27;100267;-74
2022/07/11 02:46:17;;;;;;;3.53;1.27;;;;;;;;;;5037863;27;100715;-74
2022/07/11 02:48:44;;;;;;;4.95;1.70;;;;;;;;;;5034998;27;100531;-74
2022/07/11 02:51:10;;;;;;;4.20;1.67;;;;;;;;;;5042646;27;101922;-74
2022/07/11 02:53:37;;;;;;;6.70;1.50;;;;;;;;;;5038973;27;98573;-74
2022/07/11 02:56:03;;;;;;;2.83;1.73;;;;;;;;;;5034577;27;100264;-74
2022/07/11 02:58:30;;;;;;;5.13;1.70;;;;;;;;;;5030552;27;100161;-74
2022/07/11 03:00:56;;;;;;;5.45;1.50;;;;;;;;;;5046546;27;98677;-74
2022/07/11 03:03:23;;;;;;;4.63;1.60;;;;;;;;;;5034118;27;99285;-74
2022/07/11 03:05:49;;;;;;;3.45;1.45;;;;;;;;;;5029888;27;98574;-74
2022/07/11 03:08:16;;;;;;;6.60;1.85;;;;;;;;;;5030147;27;98829;-74
2022/07/11 03:10:42;;;;;;;6.38;1.45;;;;;;;;;;5030023;27;100995;-74
2022/07/11 03:13:09;;;;;;;5.07;1.92;;;;;;;;;;5039026;27;99039;-74
2022/07/11 03:15:35;;;;;;;5.50;2.08;;;;;;;;;;5048120;27;100018;-74
2022/07/11 03:18:01;;;;;;;4.25;1.52;;;;;;;;;;5034211;27;99945;-75
2022/07/11 03:20:28;;;;;;;4.57;1.90;;;;;;;;;;5034279;27;98984;-74
2022/07/11 03:22:54;;;;;;;4.30;1.70;;;;;;;;;;5029659;27;100519;-74
2022/07/11 03:25:21;;;;;;;11.70;2.13;;;;;;;;;;5030405;27;98601;-74
2022/07/11 03:27:47;;;;;;;5.43;1.85;;;;;;;;;;5028448;27;100043;-74
2022/07/11 03:30:14;;;;;;;15.18;4.05;;;;;;;;;;5029397;27;99458;-74
2022/07/11 03:32:41;;;;;;;5.45;1.88;;;;;;;;;;5029584;27;98893;-74
2022/07/11 03:37:53;;;;;;;6.45;1.95;;;;;;;;;;5027880;27;101049;-74
2022/07/11 03:40:19;;;;;;;4.32;1.83;;;;;;;;;;5030183;27;99533;-73
2022/07/11 03:42:45;;;;;;;10.65;2.03;;;;;;;;;;5027011;27;99844;-73
2022/07/11 03:45:12;;;;;;;7.88;2.60;;;;;;;;;;5026868;27;98524;-73
2022/07/11 03:47:38;;;;;;;12.18;2.75;;;;;;;;;;5032554;27;99275;-72
2022/07/11 03:50:05;;;;;;;10.63;2.45;;;;;;;;;;5027978;27;100319;-73
2022/07/11 03:52:32;;;;;;;8.68;2.47;;;;;;;;;;5046386;27;98719;-73
2022/07/11 03:54:58;;;;;;;5.25;2.67;;;;;;;;;;5029293;27;99587;-73
2022/07/11 03:57:24;;;;;;;7.57;2.67;;;;;;;;;;5030290;27;101623;-73
2022/07/11 03:59:51;;;;;;;7.40;2.90;;;;;;;;;;5031069;27;100544;-74
2022/07/11 04:02:18;;;;;;;10.75;2.70;;;;;;;;;;5028298;27;100204;-74
2022/07/11 04:04:44;;;;;;;14.85;2.60;;;;;;;;;;5035475;27;99355;-74
2022/07/11 04:07:10;;;;;;;5.20;2.30;;;;;;;;;;5030782;27;99079;-74
2022/07/11 04:09:37;;;;;;;6.05;2.63;;;;;;;;;;5037625;27;100350;-74
2022/07/11 04:12:03;;;;;;;10.32;2.88;;;;;;;;;;5030481;27;98642;-74
2022/07/11 04:14:30;;;;;;;7.60;2.72;;;;;;;;;;5029622;27;99353;-73
2022/07/11 04:16:56;;;;;;;18.08;3.72;;;;;;;;;;5029151;27;99491;-74
2022/07/11 04:19:23;;;;;;;7.85;3.28;;;;;;;;;;5029248;27;101003;-73
2022/07/11 04:21:50;;;;;;;8.73;3.08;;;;;;;;;;5028986;27;99166;-74
2022/07/11 04:24:16;;;;;;;7.97;3.35;;;;;;;;;;5038301;27;100998;-73
2022/07/11 04:26:42;;;;;;;8.00;2.72;;;;;;;;;;5039397;27;98491;-73
2022/07/11 04:29:09;;;;;;;9.73;3.60;;;;;;;;;;5028920;27;99355;-73
2022/07/11 04:31:35;;;;;;;7.75;3.00;;;;;;;;;;5028418;27;99485;-74
2022/07/11 04:34:01;;;;;;;6.88;2.97;;;;;;;;;;5030235;27;100159;-74
2022/07/11 04:36:28;;;;;;;8.45;3.53;;;;;;;;;;5032114;27;100364;-74
2022/07/11 04:38:54;;;;;;;7.60;3.10;;;;;;;;;;5032076;27;99132;-74
2022/07/11 04:41:20;;;;;;;5.07;2.88;;;;;;;;;;5030251;27;99238;-74
2022/07/11 04:43:47;;;;;;;5.82;3.30;;;;;;;;;;5027771;27;99362;-74
2022/07/11 04:46:14;;;;;;;5.32;3.30;;;;;;;;;;5030888;27;100091;-74
2022/07/11 04:48:40;;;;;;;4.65;2.83;;;;;;;;;;5032080;27;100257;-74
2022/07/11 04:51:07;;;;;;;10.75;3.13;;;;;;;;;;5028906;27;98609;-74
2022/07/11 04:53:34;;;;;;;6.70;3.38;;;;;;;;;;5035860;27;102859;-74
2022/07/11 04:56:00;;;;;;;9.93;3.53;;;;;;;;;;5030953;27;100504;-74
2022/07/11 04:58:27;;;;;;;7.72;3.53;;;;;;;;;;5036858;27;98577;-75
2022/07/11 05:00:53;;;;;;;6.93;3.97;;;;;;;;;;5040965;27;100043;-74
2022/07/11 05:03:20;;;;;;;4.05;3.13;;;;;;;;;;5045438;27;100185;-74
2022/07/11 05:05:47;;;;;;;3.20;2.85;;;;;;;;;;5028447;27;97897;-74
2022/07/11 05:08:13;;;;;;;4.53;2.85;;;;;;;;;;5029099;27;98501;-75
2022/07/11 05:10:39;;;;;;;3.25;3.05;;;;;;;;;;5032170;27;100228;-74
2022/07/11 05:13:06;;;;;;;6.30;3.40;;;;;;;;;;5034302;27;99732;-74
2022/07/11 05:15:32;;;;;;;3.38;2.35;;;;;;;;;;5047449;27;100268;-74
2022/07/11 05:17:58;;;;;;;5.38;2.90;;;;;;;;;;5034353;27;99263;-74
2022/07/11 05:20:25;;;;;;;2.72;2.25;;;;;;;;;;5041012;27;100291;-74
2022/07/11 05:22:51;;;;;;;3.42;2.72;;;;;;;;;;5039312;27;99678;-74
2022/07/11 05:25:17;;;;;;;4.68;2.13;;;;;;;;;;5048380;27;98515;-74
2022/07/11 05:27:44;;;;;;;5.22;2.30;;;;;;;;;;5038098;27;99374;-74
2022/07/11 05:30:10;;;;;;;2.10;1.98;;;;;;;;;;5040789;27;98676;-74
2022/07/11 05:32:37;;;;;;;2.58;1.98;;;;;;;;;;5037670;27;99168;-74
2022/07/11 05:35:04;;;;;;;2.20;1.90;;;;;;;;;;5035059;27;99877;-74
2022/07/11 05:37:31;;;;;;;4.28;2.00;;;;;;;;;;5044644;27;99320;-74
2022/07/11 05:39:57;;;;;;;2.20;1.60;;;;;;;;;;5032628;27;101166;-74
2022/07/11 05:42:31;;;;;;;2.92;1.90;;;;;;;;;;5042818;27;99429;-74
2022/07/11 05:44:57;;;;;;;3.08;1.98;;;;;;;;;;5040195;27;98515;-75
2022/07/11 05:47:24;;;;;;;6.10;1.60;;;;;;;;;;5036429;27;99124;-74
2022/07/11 05:49:50;;;;;;;3.20;1.10;;;;;;;;;;5029080;27;100184;-74
2022/07/11 05:52:17;;;;;;;2.03;1.35;;;;;;;;;;5032231;27;98570;-75
2022/07/11 05:54:43;;;;;;;2.60;1.20;;;;;;;;;;5038651;27;98899;-74
2022/07/11 05:57:09;;;;;;;1.73;0.93;;;;;;;;;;5034100;27;99106;-75
2022/07/11 05:59:37;;;;;;;2.45;1.10;;;;;;;;;;5040866;27;99127;-74
2022/07/11 06:02:04;;;;;;;2.92;1.38;;;;;;;;;;5044097;27;100027;-75
2022/07/11 06:04:32;;;;;;;2.20;1.40;;;;;;;;;;5030007;27;98538;-75
2022/07/11 06:06:58;;;;;;;7.40;2.42;;;;;;;;;;5033885;27;99984;-74
2022/07/11 06:09:24;;;;;;;3.47;1.48;;;;;;;;;;5041372;27;100362;-74
2022/07/11 06:11:51;;;;;;;1.15;1.15;;;;;;;;;;5039938;27;100609;-75
2022/07/11 06:14:18;;;;;;;1.15;1.05;;;;;;;;;;5039599;27;99379;-75
2022/07/11 06:16:44;;;;;;;1.40;1.08;;;;;;;;;;5030348;27;99043;-75
2022/07/11 06:19:11;;;;;;;2.35;1.98;;;;;;;;;;5035426;27;99908;-74
2022/07/11 06:21:37;;;;;;;1.00;1.00;;;;;;;;;;5043257;27;99697;-74
2022/07/11 06:24:04;;;;;;;1.30;0.85;;;;;;;;;;5034466;27;99277;-75
2022/07/11 06:26:30;;;;;;;1.42;1.27;;;;;;;;;;5031394;27;100601;-75
2022/07/11 06:28:57;;;;;;;3.63;1.45;;;;;;;;;;5032194;27;99549;-75
2022/07/11 06:31:23;;;;;;;1.48;1.30;;;;;;;;;;5042439;27;98714;-75
2022/07/11 06:33:54;;;;;;;1.67;1.58;;;;;;;;;;5034639;27;99991;-74
2022/07/11 06:36:25;;;;;;;1.98;1.08;;;;;;;;;;5037520;27;101071;-74
2022/07/11 06:38:51;;;;;;;4.53;1.20;;;;;;;;;;5030400;27;99228;-74
2022/07/11 06:41:18;;;;;;;1.95;0.90;;;;;;;;;;5034591;27;99613;-74
2022/07/11 06:43:47;;;;;;;1.75;1.08;;;;;;;;;;5038671;27;97934;-75
2022/07/11 06:46:15;;;;;;;1.10;1.00;;;;;;;;;;5029345;27;99036;-79
2022/07/11 06:48:41;;;;;;;0.90;0.90;;;;;;;;;;5029200;27;99659;-75
2022/07/11 06:51:09;;;;;;;1.38;1.02;;;;;;;;;;5033576;27;99321;-75
2022/07/11 06:53:35;;;;;;;1.13;0.93;;;;;;;;;;5038162;27;99924;-75
2022/07/11 06:56:01;;;;;;;1.17;0.82;;;;;;;;;;5036498;27;99475;-75
2022/07/11 06:58:33;;;;;;;0.65;0.65;;;;;;;;;;5036703;27;98888;-73
2022/07/11 07:01:01;;;;;;;6.18;0.80;;;;;;;;;;5043610;27;100857;-75
2022/07/11 07:03:28;;;;;;;0.50;0.50;;;;;;;;;;5040991;27;98569;-77
2022/07/11 07:05:55;;;;;;;4.38;0.52;;;;;;;;;;5033249;27;99367;-78
2022/07/11 07:08:23;;;;;;;0.98;0.57;;;;;;;;;;5043320;27;99540;-73
2022/07/11 07:10:49;;;;;;;0.95;0.50;;;;;;;;;;5033690;27;98563;-74
2022/07/11 07:13:16;;;;;;;1.42;0.70;;;;;;;;;;5030742;27;99980;-74
2022/07/11 07:15:42;;;;;;;0.50;0.50;;;;;;;;;;5044385;27;100060;-75
2022/07/11 07:18:08;;;;;;;0.60;0.60;;;;;;;;;;5038492;27;98489;-75
2022/07/11 07:20:35;;;;;;;3.05;0.60;;;;;;;;;;5033375;27;100091;-74
2022/07/11 07:23:01;;;;;;;0.70;0.40;;;;;;;;;;5039709;27;98533;-74
2022/07/11 07:25:27;;;;;;;0.50;0.50;;;;;;;;;;5031137;27;99167;-74
2022/07/11 07:27:54;;;;;;;1.10;0.50;;;;;;;;;;5029874;27;100532;-75
2022/07/11 07:30:20;;;;;;;0.55;0.55;;;;;;;;;;5043923;27;99091;-74
2022/07/11 07:32:47;;;;;;;0.50;0.50;;;;;;;;;;5033224;27;99270;-74
2022/07/11 07:35:13;;;;;;;0.63;0.63;;;;;;;;;;5030784;27;100529;-76
2022/07/11 07:37:39;;;;;;;0.77;0.70;;;;;;;;;;5031437;27;98853;-73
2022/07/11 07:40:06;;;;;;;0.52;0.52;;;;;;;;;;5036010;27;100934;-74
2022/07/11 07:42:32;;;;;;;0.68;0.68;;;;;;;;;;5039277;27;98577;-74
2022/07/11 07:44:59;;;;;;;1.17;0.55;;;;;;;;;;5030369;27;100265;-73
2022/07/11 07:47:25;;;;;;;1.13;0.57;;;;;;;;;;5028204;27;99531;-74
2022/07/11 07:49:52;;;;;;;2.65;0.52;;;;;;;;;;5030447;27;98685;-74
2022/07/11 07:52:18;;;;;;;0.43;0.43;;;;;;;;;;5033342;27;100128;-75
2022/07/11 07:54:44;;;;;;;0.60;0.60;;;;;;;;;;5033590;27;99366;-74
2022/07/11 07:57:11;;;;;;;0.43;0.43;;;;;;;;;;5032565;27;98334;-74
2022/07/11 07:59:37;;;;;;;2.33;0.80;;;;;;;;;;5033491;27;99407;-74
2022/07/11 08:02:04;;;;;;;2.20;1.27;;;;;;;;;;5036397;27;100240;-74
2022/07/11 08:04:30;;;;;;;0.47;0.47;;;;;;;;;;5035012;27;99309;-73
2022/07/11 08:06:59;;;;;;;0.40;0.40;;;;;;;;;;5032897;27;99240;-74
2022/07/11 08:09:26;;;;;;;0.90;0.80;;;;;;;;;;5048906;27;99211;-75
2022/07/11 08:11:52;;;;;;;2.00;0.60;;;;;;;;;;5037090;27;100219;-74
2022/07/11 08:14:18;;;;;;;0.60;0.60;;;;;;;;;;5033807;27;99433;-74
2022/07/11 08:16:45;;;;;;;0.70;0.70;;;;;;;;;;5037805;27;98998;-74
2022/07/11 08:19:12;;;;;;;0.70;0.60;;;;;;;;;;5038327;27;99957;-74
2022/07/11 08:21:39;;;;;;;0.90;0.77;;;;;;;;;;5037296;27;99135;-74
2022/07/11 08:24:06;;;;;;;2.15;0.70;;;;;;;;;;5042590;27;99085;-74
2022/07/11 08:26:32;;;;;;;0.98;0.73;;;;;;;;;;5035487;27;100421;-74
2022/07/11 08:29:01;;;;;;;0.88;0.60;;;;;;;;;;5028956;27;99351;-74
2022/07/11 08:31:28;;;;;;;3.67;1.05;;;;;;;;;;5027745;27;99637;-74
2022/07/11 08:33:57;;;;;;;0.90;0.65;;;;;;;;;;5030220;27;99233;-74
2022/07/11 08:36:23;;;;;;;0.50;0.50;;;;;;;;;;5034761;27;98672;-73
2022/07/11 08:38:50;;;;;;;2.80;0.70;;;;;;;;;;5037161;27;99838;-74
2022/07/11 08:41:18;;;;;;;0.45;0.45;;;;;;;;;;5035487;27;99561;-74
2022/07/11 08:43:44;;;;;;;0.60;0.60;;;;;;;;;;5029177;27;98975;-74
2022/07/11 08:46:13;;;;;;;0.57;0.57;;;;;;;;;;5031747;27;99158;-74
2022/07/11 08:48:40;;;;;;;0.88;0.50;;;;;;;;;;5029439;27;99469;-74
2022/07/11 08:51:08;;;;;;;1.88;0.60;;;;;;;;;;5029032;27;99977;-74
2022/07/11 08:53:37;;;;;;;1.40;0.50;;;;;;;;;;5028700;27;101061;-74
2022/07/11 08:56:04;;;;;;;1.25;1.15;;;;;;;;;;5030069;27;99855;-74
2022/07/11 08:58:31;;;;;;;0.50;0.47;;;;;;;;;;5037847;27;98583;-74
2022/07/11 09:00:58;;;;;;;0.50;0.50;;;;;;;;;;5035765;27;100402;-74
2022/07/11 09:03:24;;;;;;;0.50;0.50;;;;;;;;;;5031094;27;98743;-73
2022/07/11 09:05:50;;;;;;;0.50;0.50;;;;;;;;;;5041883;27;100231;-74
2022/07/11 09:08:17;;;;;;;0.60;0.60;;;;;;;;;;5040736;27;100289;-74
2022/07/11 09:10:45;;;;;;;0.50;0.50;;;;;;;;;;5029015;27;99209;-74
2022/07/11 09:13:11;;;;;;;0.38;0.38;;;;;;;;;;5027648;27;99350;-74
2022/07/11 09:15:37;;;;;;;0.63;0.63;;;;;;;;;;5043587;27;98540;-74
2022/07/11 09:18:06;;;;;;;0.90;0.47;;;;;;;;;;5029482;27;99873;-73
2022/07/11 09:26:21;;;;;;;2.05;0.63;;;;;;;;;;5029058;27;99939;-73
2022/07/11 09:29:00;;;;;;;0.52;0.52;;;;;;;;;;5032798;27;100239;-73
2022/07/11 09:31:27;;;;;;;0.70;0.70;;;;;;;;;;5032460;27;98585;-73
2022/07/11 09:33:58;;;;;;;0.52;0.52;;;;;;;;;;5026101;27;99454;-73
2022/07/11 09:36:43;;;;;;;0.50;0.50;;;;;;;;;;5035493;27;99384;-73
2022/07/11 09:39:11;;;;;;;0.60;0.60;;;;;;;;;;5034016;27;98985;-75
2022/07/11 09:41:38;;;;;;;2.75;0.60;;;;;;;;;;5031658;27;101497;-76
2022/07/11 09:44:07;;;;;;;3.92;0.60;;;;;;;;;;5032034;27;99422;-75
2022/07/11 09:46:33;;;;;;;2.50;0.50;;;;;;;;;;5033153;27;99994;-73
2022/07/11 09:49:04;;;;;;;0.60;0.45;;;;;;;;;;5031383;27;99556;-73
2022/07/11 09:51:32;;;;;;;0.30;0.30;;;;;;;;;;5039900;27;98562;-73
2022/07/11 09:53:58;;;;;;;0.40;0.40;;;;;;;;;;5032710;27;100341;-73
2022/07/11 09:56:30;;;;;;;0.43;0.43;;;;;;;;;;5039286;27;99085;-73
2022/07/11 09:59:17;;;;;;;0.55;0.32;;;;;;;;;;5030962;27;99778;-73
2022/07/11 10:01:44;;;;;;;0.40;0.40;;;;;;;;;;5030097;27;99491;-73
2022/07/11 10:04:11;;;;;;;3.92;0.40;;;;;;;;;;5027257;27;99154;-73
2022/07/11 10:06:43;;;;;;;0.38;0.38;;;;;;;;;;5036585;27;100164;-73
2022/07/11 10:09:10;;;;;;;0.43;0.43;;;;;;;;;;5026084;27;100539;-73
2022/07/11 10:11:37;;;;;;;0.40;0.40;;;;;;;;;;5027122;27;98899;-73
2022/07/11 10:14:03;;;;;;;3.15;0.32;;;;;;;;;;5033880;27;99036;-73
2022/07/11 10:16:36;;;;;;;0.40;0.40;;;;;;;;;;5027953;27;99231;-73
2022/07/11 10:19:16;;;;;;;0.43;0.43;;;;;;;;;;5033347;27;99990;-73
2022/07/11 10:21:52;;;;;;;0.73;0.40;;;;;;;;;;5027246;27;100575;-73
2022/07/11 10:24:22;;;;;;;0.50;0.50;;;;;;;;;;5028379;27;98736;-73
2022/07/11 10:26:57;;;;;;;0.50;0.50;;;;;;;;;;5028923;27;99948;-73
2022/07/11 10:29:31;;;;;;;1.20;0.50;;;;;;;;;;5034638;27;99486;-73
2022/07/11 10:32:11;;;;;;;0.73;0.60;;;;;;;;;;5025970;27;98800;-73
2022/07/11 10:34:41;;;;;;;0.50;0.50;;;;;;;;;;5034098;27;99391;-73
2022/07/11 10:37:08;;;;;;;0.50;0.50;;;;;;;;;;5032173;27;102154;-73
2022/07/11 10:39:35;;;;;;;1.00;0.40;;;;;;;;;;5033941;27;100927;-73
2022/07/11 10:42:03;;;;;;;0.70;0.70;;;;;;;;;;5035527;27;100416;-73
2022/07/11 10:44:49;;;;;;;0.60;0.60;;;;;;;;;;5037169;27;98788;-73
2022/07/11 10:47:38;;;;;;;0.55;0.55;;;;;;;;;;5041213;27;100056;-73
2022/07/11 10:50:33;;;;;;;0.82;0.80;;;;;;;;;;5026702;27;99897;-73
2022/07/11 10:53:06;;;;;;;0.60;0.60;;;;;;;;;;5027971;27;97810;-73
2022/07/11 10:55:35;;;;;;;0.30;0.30;;;;;;;;;;5030486;27;99097;-75
2022/07/11 10:58:05;;;;;;;0.70;0.70;;;;;;;;;;5030820;27;100254;-75
2022/07/11 11:00:31;;;;;;;0.95;0.80;;;;;;;;;;5039344;27;99516;-73
2022/07/11 11:03:10;;;;;;;0.60;0.60;;;;;;;;;;5033725;27;100211;-73
2022/07/11 11:05:39;;;;;;;0.60;0.60;;;;;;;;;;5034466;27;98760;-73
2022/07/11 11:08:24;;;;;;;1.48;0.88;;;;;;;;;;5032729;27;99015;-73
2022/07/11 11:10:51;;;;;;;2.28;0.60;;;;;;;;;;5041873;27;99339;-73
2022/07/11 11:13:20;;;;;;;1.00;0.93;;;;;;;;;;5049061;27;98678;-73
2022/07/11 11:15:54;;;;;;;1.63;0.65;;;;;;;;;;5041774;27;99897;-73
2022/07/11 11:18:23;;;;;;;0.70;0.70;;;;;;;;;;5030492;27;99060;-74
2022/07/11 11:21:12;;;;;;;1.65;0.60;;;;;;;;;;5030992;27;98671;-73
2022/07/11 11:23:39;;;;;;;0.63;0.63;;;;;;;;;;5029842;27;99617;-73
2022/07/11 11:26:14;;;;;;;0.70;0.70;;;;;;;;;;5027463;27;100767;-73
2022/07/11 11:29:00;;;;;;;0.68;0.52;;;;;;;;;;5027319;27;100506;-73
2022/07/11 11:31:27;;;;;;;0.50;0.50;;;;;;;;;;5031411;27;100320;-73
2022/07/11 11:33:53;;;;;;;0.85;0.60;;;;;;;;;;5031095;27;98622;-73
2022/07/11 11:36:20;;;;;;;0.60;0.57;;;;;;;;;;5025611;27;99660;-73
2022/07/11 11:38:47;;;;;;;0.60;0.60;;;;;;;;;;5031541;27;100580;-73
2022/07/11 11:41:20;;;;;;;0.73;0.70;;;;;;;;;;5031574;27;99255;-73
2022/07/11 11:43:46;;;;;;;0.50;0.50;;;;;;;;;;5029011;27;100065;-73
2022/07/11 11:46:13;;;;;;;0.60;0.50;;;;;;;;;;5029608;27;99384;-73
2022/07/11 11:48:45;;;;;;;0.60;0.60;;;;;;;;;;5030123;28;99982;-73
2022/07/11 11:51:15;;;;;;;1.27;0.50;;;;;;;;;;5046553;27;100834;-73
2022/07/11 11:53:43;;;;;;;0.88;0.63;;;;;;;;;;5039447;27;98527;-73
2022/07/11 11:56:13;;;;;;;0.57;0.52;;;;;;;;;;5028464;27;101152;-73
2022/07/11 11:58:40;;;;;;;0.40;0.40;;;;;;;;;;5033566;27;99574;-73
2022/07/11 12:01:07;;;;;;;0.60;0.60;;;;;;;;;;5030731;27;98589;-73
2022/07/11 12:03:54;;;;;;;0.60;0.60;;;;;;;;;;5029817;27;99853;-73
2022/07/11 12:06:21;;;;;;;0.60;0.60;;;;;;;;;;5031366;27;100023;-73
2022/07/11 12:08:47;;;;;;;0.60;0.60;;;;;;;;;;5026426;27;99641;-73
2022/07/11 12:11:14;;;;;;;3.65;0.60;;;;;;;;;;5025176;27;99928;-73
2022/07/11 12:13:41;;;;;;;0.90;0.55;;;;;;;;;;5026411;27;98679;-73
2022/07/11 12:19:03;;;;;;;0.75;0.60;;;;;;;;;;5030501;27;99404;-74
2022/07/11 12:21:30;;;;;;;0.40;0.40;;;;;;;;;;5024414;27;100399;-73
2022/07/11 12:24:00;;;;;;;0.68;0.68;;;;;;;;;;5027951;27;101857;-73
2022/07/11 12:26:28;;;;;;;3.13;0.60;;;;;;;;;;5033315;27;100554;-73
2022/07/11 12:29:16;;;;;;;0.70;0.50;;;;;;;;;;5033154;27;98624;-74
2022/07/11 12:31:49;;;;;;;3.67;0.50;;;;;;;;;;5024201;27;100049;-73
2022/07/11 12:34:16;;;;;;;2.70;0.63;;;;;;;;;;5032304;27;98538;-73
2022/07/11 12:36:43;;;;;;;0.52;0.52;;;;;;;;;;5027226;27;100382;-74
2022/07/11 12:39:09;;;;;;;0.82;0.60;;;;;;;;;;5029493;27;100474;-73
2022/07/11 12:41:36;;;;;;;0.95;0.50;;;;;;;;;;5027858;27;99347;-73
2022/07/11 12:46:47;;;;;;;3.00;0.50;;;;;;;;;;5029405;27;100268;-73
2022/07/11 12:49:15;;;;;;;2.65;0.60;;;;;;;;;;5027566;27;99817;-73
2022/07/11 12:51:45;;;;;;;0.80;0.47;;;;;;;;;;5029557;27;100054;-73
2022/07/11 12:54:11;;;;;;;0.88;0.60;;;;;;;;;;5023495;27;99404;-73
2022/07/11 12:56:38;;;;;;;5.05;0.70;;;;;;;;;;5028502;27;100329;-73
2022/07/11 12:59:05;;;;;;;0.55;0.55;;;;;;;;;;5031980;27;99467;-73
2022/07/11 13:01:52;;;;;;;1.35;0.70;;;;;;;;;;5025594;27;99157;-73
2022/07/11 13:04:48;;;;;;;0.50;0.50;;;;;;;;;;5027983;27;99716;-73
2022/07/11 13:10:26;;;;;;;0.40;0.40;;;;;;;;;;5028337;27;99129;-73
2022/07/11 13:12:53;;;;;;;0.93;0.50;;;;;;;;;;5025734;27;100037;-73
2022/07/11 13:15:21;;;;;;;0.50;0.50;;;;;;;;;;5031950;27;99417;-73
2022/07/11 13:17:48;;;;;;;0.50;0.50;;;;;;;;;;5026504;27;99447;-76
2022/07/11 13:20:20;;;;;;;0.40;0.40;;;;;;;;;;5030980;27;99865;-73
2022/07/11 13:22:48;;;;;;;1.17;0.50;;;;;;;;;;5027331;27;100271;-73
2022/07/11 13:25:15;;;;;;;0.57;0.40;;;;;;;;;;5028169;27;100111;-73
2022/07/11 13:27:42;;;;;;;3.60;0.43;;;;;;;;;;5030372;27;100243;-73
2022/07/11 13:30:11;;;;;;;0.40;0.40;;;;;;;;;;5026310;27;100476;-74
2022/07/11 13:32:38;;;;;;;0.50;0.50;;;;;;;;;;5027933;27;100157;-73
2022/07/11 13:35:05;;;;;;;0.50;0.50;;;;;;;;;;5024052;27;99512;-72
2022/07/11 13:37:31;;;;;;;0.80;0.50;;;;;;;;;;5036149;27;98709;-75
2022/07/11 13:39:58;;;;;;;0.68;0.50;;;;;;;;;;5023766;27;100633;-73
2022/07/11 13:42:24;;;;;;;1.92;0.60;;;;;;;;;;5026395;27;99561;-75
2022/07/11 13:44:52;;;;;;;0.60;0.60;;;;;;;;;;5029823;27;99639;-73
2022/07/11 13:47:18;;;;;;;2.67;0.60;;;;;;;;;;5021179;27;99782;-73
2022/07/11 13:49:45;;;;;;;0.73;0.60;;;;;;;;;;5028212;27;97969;-73
2022/07/11 13:52:11;;;;;;;0.60;0.60;;;;;;;;;;5028315;27;101524;-73
2022/07/11 13:54:38;;;;;;;0.88;0.57;;;;;;;;;;5026470;27;100844;-73
2022/07/11 13:57:04;;;;;;;0.60;0.60;;;;;;;;;;5028786;27;100713;-73
2022/07/11 13:59:31;;;;;;;1.25;0.65;;;;;;;;;;5023779;27;100640;-73
2022/07/11 14:01:57;;;;;;;0.75;0.75;;;;;;;;;;5029790;27;99055;-73
2022/07/11 14:04:23;;;;;;;1.00;0.70;;;;;;;;;;5034286;27;99097;-73
2022/07/11 14:06:55;;;;;;;0.50;0.50;;;;;;;;;;5034152;27;100043;-73
2022/07/11 14:09:21;;;;;;;0.70;0.70;;;;;;;;;;5041883;27;98629;-73
2022/07/11 14:11:48;;;;;;;0.90;0.55;;;;;;;;;;5028334;27;100116;-73
2022/07/11 14:14:14;;;;;;;0.70;0.70;;;;;;;;;;5028688;27;98707;-73
2022/07/11 14:16:41;;;;;;;0.52;0.52;;;;;;;;;;5034939;27;98931;-73
2022/07/11 14:19:10;;;;;;;2.67;0.63;;;;;;;;;;5028688;27;99044;-74
2022/07/11 14:21:37;;;;;;;0.65;0.50;;;;;;;;;;5023366;27;101069;-74
2022/07/11 14:24:03;;;;;;;0.55;0.50;;;;;;;;;;5026758;27;99697;-74
2022/07/11 14:26:30;;;;;;;1.88;0.45;;;;;;;;;;5024813;27;101671;-75
2022/07/11 14:28:56;;;;;;;0.65;0.65;;;;;;;;;;5026319;27;100304;-75
2022/07/11 14:31:30;;;;;;;0.60;0.60;;;;;;;;;;5032667;27;99455;-75
2022/07/11 14:33:57;;;;;;;1.00;0.50;;;;;;;;;;5028844;27;100329;-80
2022/07/11 14:36:24;;;;;;;1.10;0.80;;;;;;;;;;5032502;27;100814;-74
2022/07/11 14:38:51;;;;;;;1.73;0.50;;;;;;;;;;5028426;27;98373;-73
2022/07/11 14:41:17;;;;;;;0.98;0.50;;;;;;;;;;5034267;27;99622;-74
2022/07/11 14:43:45;;;;;;;0.70;0.70;;;;;;;;;;5031180;27;100048;-73
2022/07/11 14:46:11;;;;;;;1.17;0.50;;;;;;;;;;5043631;27;99307;-74
2022/07/11 14:48:38;;;;;;;0.40;0.40;;;;;;;;;;5030353;27;100883;-74
2022/07/11 14:51:05;;;;;;;0.80;0.80;;;;;;;;;;5030516;28;100770;-74
2022/07/11 14:53:31;;;;;;;0.50;0.50;;;;;;;;;;5031688;27;100306;-76
2022/07/11 14:55:57;;;;;;;2.30;0.50;;;;;;;;;;5043219;27;98633;-73
2022/07/11 14:58:44;;;;;;;1.75;0.68;;;;;;;;;;5038168;27;99962;-74
2022/07/11 15:01:10;;;;;;;0.50;0.50;;;;;;;;;;5034695;27;99349;-74